Terminal Aerodrome Forecast
Issued by NWS Buffalo, NY

Home | Current Version | Previous Version | Text Only | Print | Product List | Glossary On
Versions: 1 2 3 4 5 6 7 8 9 10 11 12 13 14 15 16 17 18 19 20 21 22 23 24 25 26 27 28 29
000
FTUS41 KBUF 300500
TAFART
TAF
KART 300527Z 3006/3106 16006KT P6SM SKC
     FM300900 20007KT P6SM BKN060 BKN100
     FM302000 22013KT P6SM BKN050 OVC100
     FM310100 22006KT P6SM BKN035 BKN090=

USA.gov is the U.S. government's official web portal to all federal, state and local government web resources and services.